Time;durP1;ratioP1;P1;durP2;ratioP2;P2;SDS_P1;SDS_P2;PMS_P1;PMS_P2;Temp;Humidity;BMP_temperature;BMP_pressure;BME280_temperature;BME280_humidity;BME280_pressure;Samples;Min_cycle;Max_cycle;Signal;HPM_P1;HPM_P2
2022/03/27 00:01:15;;;;;;;39.30;13.77;;;3.70;99.90;;;;;;5009029;28;20476;-65
2022/03/27 00:03:41;;;;;;;43.30;14.80;;;3.70;99.90;;;;;;5007939;28;20125;-65
2022/03/27 00:06:07;;;;;;;38.92;13.52;;;3.50;99.90;;;;;;5009411;28;20034;-64
2022/03/27 00:08:32;;;;;;;38.80;14.02;;;3.50;99.90;;;;;;5008158;28;20040;-65
2022/03/27 00:13:43;;;;;;;43.20;14.32;;;3.40;99.90;;;;;;5009382;28;20080;-64
2022/03/27 00:16:09;;;;;;;41.28;14.30;;;3.40;99.90;;;;;;5008268;28;20046;-64
2022/03/27 00:18:36;;;;;;;37.90;14.43;;;3.40;99.90;;;;;;5007734;28;20033;-65
2022/03/27 00:21:03;;;;;;;46.08;15.07;;;3.20;99.90;;;;;;5010207;28;20026;-64
2022/03/27 00:23:28;;;;;;;41.35;15.32;;;3.10;99.90;;;;;;5012531;28;20054;-64
2022/03/27 00:25:54;;;;;;;39.50;14.30;;;3.10;99.90;;;;;;5015830;28;20056;-65
2022/03/27 00:28:20;;;;;;;49.17;15.00;;;3.10;99.90;;;;;;5018577;28;20069;-65
2022/03/27 00:30:46;;;;;;;44.88;15.70;;;3.10;99.90;;;;;;5011921;28;20033;-65
2022/03/27 00:33:12;;;;;;;41.75;14.32;;;3.10;99.90;;;;;;5012734;28;20100;-64
2022/03/27 00:35:37;;;;;;;40.10;15.55;;;3.00;99.90;;;;;;5010498;28;20439;-65
2022/03/27 00:38:03;;;;;;;38.70;14.80;;;2.90;99.90;;;;;;5012876;28;20033;-65
2022/03/27 00:40:30;;;;;;;41.35;14.45;;;2.90;99.90;;;;;;5012293;28;20034;-63
2022/03/27 00:42:55;;;;;;;41.50;14.35;;;3.00;99.90;;;;;;5012204;28;20036;-63
2022/03/27 00:45:21;;;;;;;39.15;14.38;;;3.10;99.90;;;;;;5011522;28;20108;-65
2022/03/27 00:47:47;;;;;;;36.47;13.27;;;3.20;99.90;;;;;;5011557;28;20449;-65
2022/03/27 00:50:12;;;;;;;46.53;13.85;;;3.20;99.90;;;;;;5015946;28;20026;-62
2022/03/27 00:52:38;;;;;;;39.03;14.32;;;3.20;99.90;;;;;;5012140;28;20034;-64
2022/03/27 00:55:04;;;;;;;40.35;13.80;;;3.10;99.90;;;;;;5012238;28;20022;-65
2022/03/27 00:57:30;;;;;;;40.55;14.32;;;3.00;99.90;;;;;;5012592;28;20482;-64
2022/03/27 00:59:56;;;;;;;37.67;13.27;;;3.00;99.90;;;;;;5010702;28;20045;-65
2022/03/27 01:02:24;;;;;;;41.42;14.20;;;2.90;99.90;;;;;;5009939;28;20037;-64
2022/03/27 01:04:54;;;;;;;38.08;13.15;;;2.80;99.90;;;;;;5010141;28;20420;-64
2022/03/27 01:07:20;;;;;;;35.13;14.48;;;2.80;99.90;;;;;;5012275;28;20548;-64
2022/03/27 01:09:46;;;;;;;46.08;14.68;;;2.70;99.90;;;;;;5015764;28;20045;-64
2022/03/27 01:12:39;;;;;;;40.30;14.20;;;2.70;99.90;;;;;;5011772;28;20457;-64
2022/03/27 01:15:23;;;;;;;40.03;13.02;;;2.60;99.90;;;;;;5004011;28;20046;-64
2022/03/27 01:17:49;;;;;;;37.70;14.50;;;2.50;99.90;;;;;;5011761;28;20033;-64
2022/03/27 01:20:38;;;;;;;39.22;14.02;;;2.40;99.90;;;;;;5011609;28;20392;-64
2022/03/27 01:23:08;;;;;;;46.33;14.20;;;2.40;99.90;;;;;;5011351;28;20373;-63
2022/03/27 01:25:34;;;;;;;48.50;13.38;;;2.30;99.90;;;;;;5010892;28;20034;-66
2022/03/27 01:27:59;;;;;;;48.40;15.05;;;2.30;99.90;;;;;;5011641;28;20112;-65
2022/03/27 01:30:25;;;;;;;42.95;14.85;;;2.30;99.90;;;;;;5011569;28;20026;-64
2022/03/27 01:32:52;;;;;;;42.85;13.98;;;2.40;99.90;;;;;;5020729;28;20037;-64
2022/03/27 01:35:22;;;;;;;45.17;14.73;;;2.40;99.90;;;;;;5011304;28;20216;-64
2022/03/27 01:37:49;;;;;;;35.30;13.83;;;2.40;99.90;;;;;;5012301;28;20025;-65
2022/03/27 01:40:15;;;;;;;45.17;13.80;;;2.40;99.90;;;;;;5011836;28;20735;-64
2022/03/27 01:42:41;;;;;;;35.90;12.93;;;2.50;99.90;;;;;;5029701;28;20447;-64
2022/03/27 01:45:08;;;;;;;38.10;13.50;;;2.50;99.90;;;;;;5017775;28;20037;-64
2022/03/27 01:47:33;;;;;;;45.35;15.02;;;2.50;99.90;;;;;;5011133;28;20041;-64
2022/03/27 01:50:01;;;;;;;45.25;14.82;;;2.60;99.90;;;;;;5010059;28;20033;-64
2022/03/27 01:52:27;;;;;;;39.28;13.23;;;2.60;99.90;;;;;;5013784;28;20026;-65
2022/03/27 01:54:53;;;;;;;39.08;14.20;;;2.50;99.90;;;;;;5010837;28;20104;-65
2022/03/27 01:57:18;;;;;;;39.63;13.75;;;2.50;99.90;;;;;;5027885;28;20037;-64
2022/03/27 01:59:44;;;;;;;40.63;14.98;;;2.40;99.90;;;;;;5010002;28;20443;-64
2022/03/27 02:02:10;;;;;;;39.72;14.10;;;2.30;99.90;;;;;;5011088;28;20040;-64
2022/03/27 02:04:36;;;;;;;40.58;14.40;;;2.20;99.90;;;;;;5009788;28;20108;-65
2022/03/27 02:07:02;;;;;;;41.03;14.48;;;2.10;99.90;;;;;;5009120;28;20041;-64
2022/03/27 02:09:27;;;;;;;36.15;13.05;;;2.10;99.90;;;;;;5010069;28;20065;-64
2022/03/27 02:11:53;;;;;;;47.83;16.00;;;2.00;99.90;;;;;;5009413;28;20062;-64
2022/03/27 02:14:19;;;;;;;42.80;14.18;;;2.00;99.90;;;;;;5010592;28;20526;-64
2022/03/27 02:16:45;;;;;;;37.65;13.88;;;1.90;99.90;;;;;;5010398;28;20030;-64
2022/03/27 02:19:11;;;;;;;47.63;14.23;;;1.80;99.90;;;;;;5010593;28;20026;-63
2022/03/27 02:21:38;;;;;;;46.05;14.57;;;1.90;99.90;;;;;;5010774;28;20025;-64
2022/03/27 02:24:04;;;;;;;41.28;15.27;;;1.80;99.90;;;;;;5009698;28;20109;-64
2022/03/27 02:26:31;;;;;;;43.75;13.90;;;1.90;99.90;;;;;;5010201;28;20092;-64
2022/03/27 02:28:57;;;;;;;45.03;14.23;;;1.80;99.90;;;;;;5009727;28;20037;-64
2022/03/27 02:31:23;;;;;;;42.83;14.35;;;1.80;99.90;;;;;;5018634;28;20112;-64
2022/03/27 02:33:48;;;;;;;44.75;13.68;;;1.80;99.90;;;;;;5009573;28;20038;-64
2022/03/27 02:36:15;;;;;;;43.80;13.68;;;1.70;99.90;;;;;;5005812;28;20030;-64
2022/03/27 02:38:41;;;;;;;48.13;13.95;;;1.70;99.90;;;;;;5009739;28;20108;-64
2022/03/27 02:41:07;;;;;;;43.78;14.55;;;1.70;99.90;;;;;;5010400;28;20034;-65
2022/03/27 02:43:33;;;;;;;41.53;14.35;;;1.70;99.90;;;;;;5011308;28;20076;-64
2022/03/27 02:46:00;;;;;;;38.47;13.07;;;1.90;99.90;;;;;;5009341;28;20045;-63
2022/03/27 02:48:26;;;;;;;40.58;13.52;;;1.80;99.90;;;;;;5013427;28;20754;-65
2022/03/27 02:50:52;;;;;;;39.22;13.40;;;1.70;99.90;;;;;;5012964;28;20025;-64
2022/03/27 02:53:18;;;;;;;37.95;13.18;;;1.60;99.90;;;;;;5010058;28;20072;-64
2022/03/27 02:55:43;;;;;;;39.97;13.82;;;1.50;99.90;;;;;;5012967;28;20065;-65
2022/03/27 02:58:09;;;;;;;50.20;14.15;;;1.60;99.90;;;;;;5027609;28;20464;-64
2022/03/27 03:00:35;;;;;;;39.35;13.40;;;1.60;99.90;;;;;;5018317;28;20464;-64
2022/03/27 03:03:01;;;;;;;48.92;13.68;;;1.60;99.90;;;;;;5008840;28;20080;-64
2022/03/27 03:05:27;;;;;;;41.67;13.07;;;1.70;99.90;;;;;;5009886;28;20050;-64
2022/03/27 03:07:52;;;;;;;37.72;13.90;;;1.60;99.90;;;;;;5009128;28;20091;-64
2022/03/27 03:10:18;;;;;;;36.15;12.85;;;1.60;99.90;;;;;;5011793;28;20488;-64
2022/03/27 03:12:44;;;;;;;48.85;14.20;;;1.60;99.90;;;;;;5008841;28;20049;-65
2022/03/27 03:15:10;;;;;;;42.47;13.93;;;1.50;99.90;;;;;;5009028;28;20461;-65
2022/03/27 03:17:37;;;;;;;36.28;13.05;;;1.50;99.90;;;;;;5009646;28;20042;-64
2022/03/27 03:20:04;;;;;;;42.65;14.45;;;1.50;99.90;;;;;;5008541;28;20017;-65
2022/03/27 03:22:30;;;;;;;39.25;13.90;;;1.40;99.90;;;;;;5009665;28;20447;-64
2022/03/27 03:24:56;;;;;;;36.88;13.38;;;1.40;99.90;;;;;;5011171;28;20473;-64
2022/03/27 03:27:22;;;;;;;41.90;13.57;;;1.40;99.90;;;;;;5009643;28;20038;-64
2022/03/27 03:29:47;;;;;;;43.95;14.50;;;1.40;99.90;;;;;;5021102;28;20041;-65
2022/03/27 03:32:13;;;;;;;42.17;14.65;;;1.40;99.90;;;;;;5010907;28;20588;-65
2022/03/27 03:34:39;;;;;;;37.60;13.68;;;1.40;99.90;;;;;;5009613;28;20037;-65
2022/03/27 03:37:05;;;;;;;40.15;15.23;;;1.40;99.90;;;;;;5022951;28;20071;-64
2022/03/27 03:39:30;;;;;;;41.28;15.07;;;1.30;99.90;;;;;;5009427;28;20041;-64
2022/03/27 03:41:56;;;;;;;43.95;14.30;;;1.20;99.90;;;;;;5008677;28;20045;-64
2022/03/27 03:44:23;;;;;;;42.33;14.05;;;1.10;99.90;;;;;;5008968;28;20439;-64
2022/03/27 03:46:48;;;;;;;38.83;12.93;;;1.10;99.90;;;;;;5007804;28;20041;-63
2022/03/27 03:49:14;;;;;;;41.40;12.75;;;1.10;99.90;;;;;;5009336;28;20157;-65
2022/03/27 03:51:40;;;;;;;37.10;13.82;;;1.10;99.90;;;;;;5019795;28;20037;-64
2022/03/27 03:54:09;;;;;;;36.08;12.98;;;1.10;99.90;;;;;;5007630;28;20030;-64
2022/03/27 03:56:35;;;;;;;42.80;13.25;;;1.10;99.90;;;;;;5022993;28;20033;-64
2022/03/27 03:59:01;;;;;;;41.38;13.60;;;1.10;99.90;;;;;;5008373;28;20034;-64
2022/03/27 04:01:27;;;;;;;42.47;13.90;;;1.20;99.90;;;;;;5009003;28;20037;-64
2022/03/27 04:03:52;;;;;;;39.67;13.00;;;1.20;99.90;;;;;;5008432;28;20120;-65
2022/03/27 04:06:19;;;;;;;36.85;12.68;;;1.20;99.90;;;;;;5007780;28;20034;-64
2022/03/27 04:08:45;;;;;;;40.97;14.13;;;1.20;99.90;;;;;;5008129;28;20038;-65
2022/03/27 04:11:16;;;;;;;37.33;13.80;;;1.10;99.90;;;;;;5008364;28;20038;-64
2022/03/27 04:13:45;;;;;;;36.03;13.02;;;1.00;99.90;;;;;;5009315;28;20105;-64
2022/03/27 04:16:12;;;;;;;37.65;13.23;;;0.90;99.90;;;;;;5008770;28;20038;-63
2022/03/27 04:18:39;;;;;;;33.70;13.40;;;0.90;99.90;;;;;;5014677;28;20036;-63
2022/03/27 04:21:05;;;;;;;39.00;13.70;;;0.90;99.90;;;;;;5008424;28;20088;-64
2022/03/27 04:23:31;;;;;;;39.25;13.38;;;0.80;99.90;;;;;;5008873;28;20034;-64
2022/03/27 04:25:57;;;;;;;42.08;14.20;;;0.80;99.90;;;;;;5013353;28;20038;-64
2022/03/27 04:28:23;;;;;;;39.00;13.60;;;0.90;99.90;;;;;;5009760;28;20034;-64
2022/03/27 04:30:49;;;;;;;43.05;13.18;;;0.80;99.90;;;;;;5008259;28;20038;-65
2022/03/27 04:33:15;;;;;;;38.10;13.75;;;0.80;99.90;;;;;;5017904;28;20060;-64
2022/03/27 04:35:41;;;;;;;44.10;13.60;;;0.70;99.90;;;;;;5013452;28;20120;-64
2022/03/27 04:38:07;;;;;;;40.75;13.68;;;0.60;99.90;;;;;;5011088;28;20097;-64
2022/03/27 04:40:32;;;;;;;41.72;14.25;;;0.60;99.90;;;;;;5007687;28;20030;-64
2022/03/27 04:42:58;;;;;;;38.55;12.77;;;0.70;99.90;;;;;;5008468;28;20113;-64
2022/03/27 04:45:24;;;;;;;46.95;13.45;;;0.70;99.90;;;;;;5008410;28;20030;-64
2022/03/27 04:47:50;;;;;;;40.90;13.38;;;0.60;99.90;;;;;;5004444;28;20104;-64
2022/03/27 04:50:15;;;;;;;32.75;11.68;;;0.60;99.90;;;;;;5008387;28;20111;-64
2022/03/27 04:52:41;;;;;;;40.50;12.60;;;0.60;99.90;;;;;;5007955;28;20045;-64
2022/03/27 04:55:07;;;;;;;38.58;13.48;;;0.60;99.90;;;;;;5007376;28;20181;-64
2022/03/27 04:57:38;;;;;;;39.03;12.63;;;0.70;99.90;;;;;;5008403;28;20040;-64
2022/03/27 05:00:10;;;;;;;35.05;12.05;;;0.60;99.90;;;;;;5007297;28;20030;-64
2022/03/27 05:02:37;;;;;;;42.35;12.45;;;0.60;99.90;;;;;;5009826;28;20084;-64
2022/03/27 05:05:04;;;;;;;42.55;13.35;;;0.60;99.90;;;;;;5007337;28;20052;-64
2022/03/27 05:07:30;;;;;;;35.65;12.48;;;0.60;99.90;;;;;;5008264;28;20086;-64
2022/03/27 05:09:56;;;;;;;36.50;12.27;;;0.50;99.90;;;;;;5010751;28;20034;-64
2022/03/27 05:12:22;;;;;;;36.65;12.15;;;0.50;99.90;;;;;;5011443;28;20038;-64
2022/03/27 05:14:48;;;;;;;39.88;13.07;;;0.60;99.90;;;;;;5011308;28;20034;-64
2022/03/27 05:17:14;;;;;;;34.55;12.23;;;0.60;99.90;;;;;;5013638;28;20072;-64
2022/03/27 05:19:41;;;;;;;40.60;13.35;;;0.60;99.90;;;;;;5011181;28;20033;-63
2022/03/27 05:22:07;;;;;;;36.60;13.68;;;0.60;99.90;;;;;;5009485;28;20034;-64
2022/03/27 05:24:34;;;;;;;40.88;13.32;;;0.60;99.90;;;;;;5011303;28;20045;-62
2022/03/27 05:26:59;;;;;;;39.22;13.27;;;0.70;99.90;;;;;;5010820;28;20034;-65
2022/03/27 05:29:25;;;;;;;41.50;13.52;;;0.70;99.90;;;;;;5011397;28;20396;-64
2022/03/27 05:31:53;;;;;;;38.95;14.05;;;0.60;99.90;;;;;;5011713;28;20493;-65
2022/03/27 05:34:19;;;;;;;37.05;12.48;;;0.60;99.90;;;;;;5010980;28;20034;-64
2022/03/27 05:36:45;;;;;;;37.70;13.45;;;0.60;99.90;;;;;;5014257;28;20025;-64
2022/03/27 05:39:13;;;;;;;39.53;12.13;;;0.60;99.90;;;;;;5012356;28;20030;-64
2022/03/27 05:41:38;;;;;;;41.72;14.13;;;0.60;99.90;;;;;;5011176;28;20088;-64
2022/03/27 05:44:04;;;;;;;37.97;13.43;;;0.70;99.90;;;;;;5010440;28;20388;-64
2022/03/27 05:46:30;;;;;;;35.38;12.95;;;0.90;99.90;;;;;;5010411;28;20073;-64
2022/03/27 05:48:56;;;;;;;39.35;12.45;;;0.90;99.90;;;;;;5009769;28;20038;-64
2022/03/27 05:51:22;;;;;;;39.13;12.95;;;1.00;99.90;;;;;;5011109;28;20026;-64
2022/03/27 05:53:47;;;;;;;40.40;13.15;;;1.00;99.90;;;;;;5010595;28;20034;-64
2022/03/27 05:56:13;;;;;;;40.58;12.65;;;1.00;99.90;;;;;;5010426;28;20042;-64
2022/03/27 05:58:39;;;;;;;40.92;12.93;;;1.10;99.90;;;;;;4999608;28;20061;-64
2022/03/27 06:01:05;;;;;;;37.35;13.30;;;1.20;99.90;;;;;;5012978;28;20029;-64
2022/03/27 06:03:31;;;;;;;38.20;12.75;;;1.40;99.90;;;;;;5003871;28;20058;-64
2022/03/27 06:05:56;;;;;;;38.92;12.52;;;1.40;99.90;;;;;;5012997;28;20088;-64
2022/03/27 06:08:22;;;;;;;37.33;13.77;;;1.40;99.90;;;;;;5014704;28;20480;-64
2022/03/27 06:10:49;;;;;;;43.80;13.13;;;1.40;99.90;;;;;;5018208;28;20022;-64
2022/03/27 06:13:16;;;;;;;41.38;13.57;;;1.40;99.90;;;;;;4999705;28;20022;-64
2022/03/27 06:15:42;;;;;;;39.70;13.48;;;1.50;99.90;;;;;;5006111;28;20034;-64
2022/03/27 06:18:11;;;;;;;36.80;13.25;;;1.50;99.90;;;;;;4997915;28;20026;-64
2022/03/27 06:20:38;;;;;;;40.40;12.95;;;1.50;99.90;;;;;;5012073;28;20119;-63
2022/03/27 06:23:05;;;;;;;41.22;13.05;;;1.50;99.90;;;;;;5001303;28;20030;-64
2022/03/27 06:25:30;;;;;;;42.25;13.43;;;1.60;99.90;;;;;;5007143;28;20109;-64
2022/03/27 06:27:57;;;;;;;38.30;14.10;;;1.60;99.90;;;;;;5011720;28;20136;-63
2022/03/27 06:30:26;;;;;;;38.72;13.55;;;1.80;99.90;;;;;;5008479;28;20030;-64
2022/03/27 06:32:53;;;;;;;40.40;13.18;;;1.90;99.90;;;;;;5007946;28;20026;-64
2022/03/27 06:35:21;;;;;;;38.78;13.48;;;2.00;99.90;;;;;;5002603;28;20510;-64
2022/03/27 06:37:48;;;;;;;43.58;13.57;;;2.10;99.90;;;;;;5009810;28;20060;-64
2022/03/27 06:40:15;;;;;;;39.95;14.32;;;2.30;99.90;;;;;;5006823;28;20077;-64
2022/03/27 06:42:43;;;;;;;38.05;13.43;;;2.40;99.90;;;;;;5011131;28;20033;-63
2022/03/27 06:45:14;;;;;;;40.35;14.80;;;2.50;99.90;;;;;;5005081;28;20034;-64
2022/03/27 06:47:42;;;;;;;36.38;13.05;;;2.60;99.90;;;;;;5003625;28;20034;-64
2022/03/27 06:50:08;;;;;;;38.42;14.07;;;2.70;99.90;;;;;;5016667;28;20487;-64
2022/03/27 06:52:36;;;;;;;37.65;13.30;;;2.90;99.90;;;;;;5014687;28;20036;-64
2022/03/27 06:55:03;;;;;;;42.78;14.20;;;3.10;99.90;;;;;;5004912;28;20041;-63
2022/03/27 06:57:29;;;;;;;41.65;13.63;;;3.20;99.90;;;;;;5006670;28;20034;-62
2022/03/27 07:05:23;;;;;;;41.88;13.68;;;3.70;99.90;;;;;;5003251;28;20103;-63
2022/03/27 07:07:49;;;;;;;37.55;13.73;;;3.90;99.90;;;;;;5001134;28;20042;-63
2022/03/27 07:10:16;;;;;;;34.20;13.20;;;4.10;99.90;;;;;;5008168;28;20527;-64
2022/03/27 07:12:43;;;;;;;41.95;14.35;;;4.30;99.90;;;;;;5001134;28;20033;-63
2022/03/27 07:15:09;;;;;;;41.75;13.95;;;4.60;99.90;;;;;;5003248;28;20037;-63
2022/03/27 07:17:46;;;;;;;33.35;12.63;;;5.00;99.90;;;;;;5000684;28;20378;-64
2022/03/27 07:20:12;;;;;;;32.63;13.65;;;5.40;99.90;;;;;;5006853;28;20041;-63
2022/03/27 07:22:39;;;;;;;40.15;12.77;;;5.70;99.90;;;;;;5004831;28;20022;-64
2022/03/27 07:25:07;;;;;;;42.72;13.07;;;6.10;99.90;;;;;;5034092;28;20088;-65
2022/03/27 07:27:34;;;;;;;35.35;13.75;;;6.40;99.90;;;;;;5008908;28;20025;-65
2022/03/27 07:30:00;;;;;;;38.17;14.00;;;6.80;99.90;;;;;;5005704;28;20041;-64
2022/03/27 07:32:25;;;;;;;41.90;13.73;;;7.20;99.90;;;;;;5004085;28;20038;-64
2022/03/27 07:34:51;;;;;;;36.65;14.13;;;7.60;99.90;;;;;;5000178;28;20026;-64
2022/03/27 07:37:17;;;;;;;38.30;14.52;;;7.90;99.90;;;;;;5009209;28;20056;-64
2022/03/27 07:39:42;;;;;;;38.42;13.90;;;8.10;99.90;;;;;;4997366;28;20108;-64
2022/03/27 07:42:08;;;;;;;36.83;14.30;;;8.40;99.90;;;;;;5005989;28;20030;-63
2022/03/27 07:44:34;;;;;;;35.72;13.80;;;8.60;99.90;;;;;;5006632;28;20863;-64
2022/03/27 07:47:00;;;;;;;36.05;13.13;;;8.80;99.90;;;;;;5007553;28;20029;-64
2022/03/27 07:49:26;;;;;;;38.05;13.07;;;9.10;99.90;;;;;;5004409;28;20483;-64
2022/03/27 07:51:53;;;;;;;39.72;14.05;;;9.30;99.90;;;;;;5003034;28;20081;-64
2022/03/27 07:54:19;;;;;;;34.33;13.25;;;9.50;99.90;;;;;;5000623;28;20033;-64
2022/03/27 07:56:45;;;;;;;36.85;13.82;;;9.70;99.90;;;;;;5004403;28;20061;-64
2022/03/27 07:59:10;;;;;;;36.25;14.65;;;10.00;99.90;;;;;;5013424;28;20044;-63
2022/03/27 08:01:36;;;;;;;39.13;14.00;;;10.10;99.90;;;;;;4999598;28;20022;-64
2022/03/27 08:04:02;;;;;;;37.60;13.18;;;10.30;99.90;;;;;;5006085;28;20500;-64
2022/03/27 08:06:29;;;;;;;36.38;13.02;;;10.50;99.90;;;;;;5008252;28;20384;-64
2022/03/27 08:08:56;;;;;;;31.50;13.50;;;10.70;99.90;;;;;;5001121;28;20489;-64
2022/03/27 08:11:23;;;;;;;30.65;12.75;;;11.00;99.90;;;;;;5014359;28;20491;-63
2022/03/27 08:13:49;;;;;;;30.70;11.85;;;11.20;99.90;;;;;;5006674;28;20039;-63
2022/03/27 08:16:15;;;;;;;30.10;12.85;;;11.20;99.90;;;;;;4999073;28;20069;-63
2022/03/27 08:18:42;;;;;;;31.80;13.23;;;11.30;99.90;;;;;;5010738;28;20062;-65
2022/03/27 08:21:07;;;;;;;39.97;14.20;;;11.50;99.90;;;;;;5007910;28;20456;-64
2022/03/27 08:23:33;;;;;;;34.80;13.40;;;11.70;99.90;;;;;;5001271;28;20030;-62
2022/03/27 08:28:44;;;;;;;31.90;12.00;;;11.90;99.90;;;;;;5009159;28;20044;-62
2022/03/27 08:31:10;;;;;;;35.88;13.13;;;12.10;99.90;;;;;;5005937;28;20084;-62
2022/03/27 08:33:36;;;;;;;39.78;12.43;;;12.20;99.90;;;;;;5014095;28;20038;-63
2022/03/27 08:36:02;;;;;;;30.63;13.15;;;12.40;99.90;;;;;;5019756;28;20036;-64
2022/03/27 08:38:27;;;;;;;32.78;12.50;;;12.50;99.90;;;;;;5005817;28;20034;-64
2022/03/27 08:40:55;;;;;;;40.33;13.13;;;12.70;99.90;;;;;;5010505;28;20101;-63
2022/03/27 08:43:21;;;;;;;28.45;12.30;;;12.80;99.90;;;;;;5003915;28;20171;-63
2022/03/27 08:45:47;;;;;;;29.48;11.60;;;13.00;99.90;;;;;;5011250;28;20037;-63
2022/03/27 08:48:13;;;;;;;29.55;12.05;;;13.10;98.40;;;;;;5001802;28;20392;-64
2022/03/27 08:50:49;;;;;;;36.63;13.18;;;13.20;96.50;;;;;;5003892;28;20034;-63
2022/03/27 08:53:28;;;;;;;37.10;12.70;;;13.30;94.90;;;;;;5011164;28;20018;-64
2022/03/27 08:56:00;;;;;;;33.53;12.20;;;13.50;96.00;;;;;;5004880;28;20108;-63
2022/03/27 08:58:37;;;;;;;31.95;12.23;;;13.70;93.80;;;;;;5011036;28;20061;-63
2022/03/27 09:01:04;;;;;;;26.15;12.07;;;13.90;93.10;;;;;;4996644;28;20041;-64
2022/03/27 09:03:31;;;;;;;34.53;11.70;;;14.00;94.80;;;;;;5011253;28;20072;-64
2022/03/27 09:05:59;;;;;;;30.10;12.65;;;14.20;88.80;;;;;;5008332;28;20030;-64
2022/03/27 09:08:25;;;;;;;32.42;12.30;;;14.30;87.60;;;;;;5002265;28;20037;-64
2022/03/27 09:10:51;;;;;;;33.95;12.65;;;14.40;84.30;;;;;;5008621;28;20084;-63
2022/03/27 09:13:19;;;;;;;38.10;13.10;;;14.50;88.10;;;;;;4999795;28;20389;-62
2022/03/27 09:15:55;;;;;;;42.13;13.45;;;14.70;88.00;;;;;;5011572;28;20033;-62
2022/03/27 09:18:21;;;;;;;33.25;12.10;;;14.70;83.50;;;;;;5011898;28;20113;-62
2022/03/27 09:20:51;;;;;;;31.77;12.50;;;14.70;84.10;;;;;;5014198;28;20421;-63
2022/03/27 09:23:26;;;;;;;35.13;12.37;;;14.80;84.50;;;;;;5009534;28;20022;-64
2022/03/27 09:25:58;;;;;;;34.20;12.35;;;15.00;84.10;;;;;;5011151;28;22021;-64
2022/03/27 09:28:34;;;;;;;29.90;12.05;;;15.30;81.10;;;;;;5009754;28;20042;-62
2022/03/27 09:31:24;;;;;;;32.58;12.48;;;15.30;79.00;;;;;;5015108;28;20029;-64
2022/03/27 09:33:52;;;;;;;28.08;12.07;;;15.60;74.80;;;;;;5019483;28;20029;-63
2022/03/27 09:36:28;;;;;;;34.60;12.98;;;15.40;73.40;;;;;;5013518;28;20077;-63
2022/03/27 09:38:59;;;;;;;29.65;12.40;;;15.80;74.20;;;;;;5012805;28;20034;-64
2022/03/27 09:41:44;;;;;;;31.67;12.10;;;16.10;71.70;;;;;;5011544;28;20034;-63
2022/03/27 09:44:15;;;;;;;29.98;11.95;;;16.00;68.50;;;;;;5009233;28;20477;-62
2022/03/27 09:46:50;;;;;;;32.28;12.68;;;16.10;67.20;;;;;;5020386;28;20377;-62
2022/03/27 09:49:35;;;;;;;33.40;12.07;;;16.40;64.80;;;;;;5008793;28;20464;-63
2022/03/27 09:52:08;;;;;;;33.95;11.85;;;16.60;64.90;;;;;;5005945;28;20041;-63
2022/03/27 09:55:09;;;;;;;34.22;11.82;;;16.70;61.90;;;;;;5006477;28;20091;-63
2022/03/27 09:57:40;;;;;;;28.88;11.20;;;16.90;62.90;;;;;;4978673;28;20034;-63
2022/03/27 10:00:12;;;;;;;30.02;11.57;;;17.00;60.50;;;;;;5006420;28;20568;-65
2022/03/27 10:02:39;;;;;;;30.67;12.20;;;17.10;58.80;;;;;;5009331;28;20483;-64
2022/03/27 10:05:13;;;;;;;33.13;12.07;;;17.20;57.30;;;;;;5013151;28;20045;-64
2022/03/27 10:07:47;;;;;;;44.72;11.98;;;17.30;57.40;;;;;;5011200;28;20172;-63
2022/03/27 10:10:21;;;;;;;36.38;12.63;;;17.30;55.80;;;;;;5011949;28;20049;-63
2022/03/27 10:12:49;;;;;;;37.42;12.07;;;17.40;55.50;;;;;;5014432;28;20093;-63
2022/03/27 10:15:17;;;;;;;31.40;11.77;;;17.40;55.80;;;;;;5005741;28;20034;-63
2022/03/27 10:17:50;;;;;;;30.33;11.52;;;17.70;56.50;;;;;;4999611;28;20038;-63
2022/03/27 10:20:18;;;;;;;32.42;11.93;;;17.90;54.80;;;;;;5004386;28;20029;-63
2022/03/27 10:23:07;;;;;;;29.08;11.25;;;17.80;52.90;;;;;;5013264;28;20057;-63
2022/03/27 10:25:50;;;;;;;29.08;11.15;;;17.90;53.80;;;;;;5006720;28;20084;-64
2022/03/27 10:28:18;;;;;;;34.47;12.00;;;18.00;52.70;;;;;;5008407;28;20034;-62
2022/03/27 10:30:44;;;;;;;29.15;11.32;;;17.90;52.20;;;;;;5012066;28;20125;-64
2022/03/27 10:33:11;;;;;;;30.08;11.75;;;17.80;52.00;;;;;;5010575;28;20036;-63
2022/03/27 10:36:04;;;;;;;32.05;12.23;;;17.80;52.70;;;;;;5016683;28;20475;-64
2022/03/27 10:39:09;;;;;;;37.38;12.70;;;18.00;52.40;;;;;;5015129;28;20030;-63
2022/03/27 10:42:02;;;;;;;30.25;11.63;;;17.90;51.90;;;;;;5010428;28;20495;-64
2022/03/27 10:45:19;;;;;;;29.08;11.65;;;17.70;48.60;;;;;;5009940;28;20548;-63
2022/03/27 10:48:08;;;;;;;29.73;12.48;;;17.60;48.80;;;;;;4961398;28;20039;-62
2022/03/27 10:50:44;;;;;;;25.83;11.20;;;17.80;49.60;;;;;;4969139;28;20042;-63
2022/03/27 10:53:10;;;;;;;36.58;12.93;;;18.20;48.80;;;;;;4969289;28;20185;-64
2022/03/27 10:55:45;;;;;;;28.10;11.75;;;17.90;48.60;;;;;;4969205;28;20050;-63
2022/03/27 10:58:39;;;;;;;32.83;11.68;;;17.90;48.80;;;;;;4970347;28;20045;-65
2022/03/27 11:01:32;;;;;;;29.45;11.75;;;17.90;48.00;;;;;;4968027;28;20034;-63
2022/03/27 11:04:06;;;;;;;29.45;11.70;;;18.30;48.70;;;;;;4952191;28;20429;-63
2022/03/27 11:06:37;;;;;;;33.75;11.30;;;18.60;47.20;;;;;;4978368;28;20042;-62
2022/03/27 11:09:06;;;;;;;33.70;12.43;;;18.80;47.20;;;;;;4970690;28;20088;-62
2022/03/27 11:11:36;;;;;;;28.73;11.25;;;18.60;47.30;;;;;;4967805;28;20042;-63
2022/03/27 11:14:22;;;;;;;31.80;11.30;;;18.70;48.20;;;;;;4959940;28;20491;-64
2022/03/27 11:17:05;;;;;;;35.47;11.98;;;18.60;45.50;;;;;;4967030;28;20035;-62
2022/03/27 11:19:44;;;;;;;27.77;11.55;;;18.40;45.90;;;;;;5004379;28;20046;-62
2022/03/27 11:22:44;;;;;;;28.92;11.23;;;18.90;46.30;;;;;;5008873;28;20038;-64
2022/03/27 11:25:30;;;;;;;27.58;11.55;;;18.80;43.40;;;;;;5000278;28;20138;-63
2022/03/27 11:28:07;;;;;;;27.80;11.52;;;18.70;44.40;;;;;;5008664;28;20065;-65
2022/03/27 11:30:38;;;;;;;27.70;10.65;;;19.00;43.80;;;;;;5007314;28;20026;-63
2022/03/27 11:33:20;;;;;;;31.55;11.50;;;19.00;43.80;;;;;;5009153;28;20061;-63
2022/03/27 11:36:04;;;;;;;30.02;10.23;;;19.40;43.60;;;;;;5012136;28;20057;-63
2022/03/27 11:38:51;;;;;;;26.92;11.10;;;19.50;43.20;;;;;;5004496;28;20033;-63
2022/03/27 11:41:42;;;;;;;32.42;11.38;;;19.20;42.60;;;;;;5011180;28;20056;-63
2022/03/27 11:44:20;;;;;;;29.50;10.25;;;19.30;43.70;;;;;;5005570;28;20040;-63
2022/03/27 11:46:54;;;;;;;33.20;10.50;;;19.60;42.10;;;;;;5003771;28;20718;-63
2022/03/27 11:49:22;;;;;;;31.75;11.23;;;19.90;40.90;;;;;;5008989;28;20042;-64
2022/03/27 11:52:22;;;;;;;26.80;10.43;;;19.70;39.20;;;;;;5007118;28;20026;-63
2022/03/27 11:54:48;;;;;;;27.10;10.53;;;19.70;41.20;;;;;;5032226;28;20034;-63
2022/03/27 11:57:17;;;;;;;35.65;13.23;;;20.10;41.70;;;;;;5029963;28;20057;-65
2022/03/27 11:59:50;;;;;;;29.20;10.95;;;20.00;40.10;;;;;;5009039;28;20033;-63
2022/03/27 12:02:18;;;;;;;27.10;11.43;;;20.10;42.40;;;;;;5007512;28;20102;-63
2022/03/27 12:04:54;;;;;;;31.88;11.30;;;20.30;43.40;;;;;;5007544;28;20058;-63
2022/03/27 12:07:22;;;;;;;37.45;12.27;;;20.70;41.00;;;;;;5008631;28;20095;-63
2022/03/27 12:10:02;;;;;;;26.83;11.57;;;20.10;40.20;;;;;;5007321;28;20029;-62
2022/03/27 12:12:32;;;;;;;27.73;12.25;;;20.00;40.90;;;;;;5005718;28;20026;-63
2022/03/27 12:14:57;;;;;;;31.58;12.27;;;19.90;41.40;;;;;;5008096;28;20030;-63
2022/03/27 12:17:25;;;;;;;28.75;11.50;;;20.30;42.70;;;;;;5014452;28;20091;-63
2022/03/27 12:20:00;;;;;;;31.80;10.80;;;20.40;41.00;;;;;;5011988;28;20026;-64
2022/03/27 12:22:46;;;;;;;27.20;12.30;;;20.90;42.70;;;;;;5009596;28;20121;-64
2022/03/27 12:25:17;;;;;;;34.55;12.07;;;21.10;40.20;;;;;;5006551;28;20081;-63
2022/03/27 12:30:35;;;;;;;29.45;11.38;;;20.90;40.80;;;;;;5010940;28;20501;-64
2022/03/27 12:33:02;;;;;;;31.90;11.55;;;20.90;40.20;;;;;;5011216;28;20040;-63
2022/03/27 12:35:29;;;;;;;25.00;11.25;;;21.20;40.50;;;;;;5010578;28;20370;-63
2022/03/27 12:37:56;;;;;;;34.33;11.85;;;21.00;39.30;;;;;;5006319;28;20481;-63
2022/03/27 12:40:24;;;;;;;29.55;10.85;;;21.10;40.30;;;;;;5008151;28;20072;-63
2022/03/27 12:42:52;;;;;;;28.30;11.30;;;21.00;40.00;;;;;;5015453;28;20034;-63
2022/03/27 12:45:32;;;;;;;26.58;11.43;;;20.90;38.90;;;;;;5011563;28;20026;-63
2022/03/27 12:48:16;;;;;;;27.98;11.07;;;20.70;41.40;;;;;;5009238;28;20041;-63
2022/03/27 12:50:47;;;;;;;25.75;11.15;;;21.00;39.70;;;;;;5013664;28;20033;-64
2022/03/27 12:53:19;;;;;;;30.00;11.48;;;20.70;40.20;;;;;;5012504;28;20029;-62
2022/03/27 12:56:06;;;;;;;27.80;10.55;;;20.30;39.50;;;;;;5009431;28;20053;-63
2022/03/27 12:58:41;;;;;;;29.63;10.95;;;20.40;41.40;;;;;;5010766;28;20172;-63